sensor_id;sensor_type;location;lat;lon;timestamp;pressure;altitude;pressure_sealevel;temperature;humidity
7836;BME280;3963;42.658;23.298;2022-09-03T00:02:25;60342.22;;;16.46;100.00
7836;BME280;3963;42.658;23.298;2022-09-03T00:05:02;60349.72;;;16.36;100.00
7836;BME280;3963;42.658;23.298;2022-09-03T00:07:38;60338.88;;;16.40;100.00
7836;BME280;3963;42.658;23.298;2022-09-03T00:10:08;60331.97;;;16.36;100.00
7836;BME280;3963;42.658;23.298;2022-09-03T00:12:39;60338.34;;;16.40;100.00
7836;BME280;3963;42.658;23.298;2022-09-03T00:15:10;60350.25;;;16.36;100.00
7836;BME280;3963;42.658;23.298;2022-09-03T00:17:40;60360.34;;;16.41;100.00
7836;BME280;3963;42.658;23.298;2022-09-03T00:20:11;60348.53;;;16.47;100.00
7836;BME280;3963;42.658;23.298;2022-09-03T00:22:42;60360.34;;;16.41;100.00
7836;BME280;3963;42.658;23.298;2022-09-03T00:25:13;60302.13;;;16.35;100.00
7836;BME280;3963;42.658;23.298;2022-09-03T00:27:43;60356.75;;;16.42;100.00
7836;BME280;3963;42.658;23.298;2022-09-03T00:30:13;60364.13;;;16.44;100.00
7836;BME280;3963;42.658;23.298;2022-09-03T00:32:43;60319.16;;;16.44;100.00
7836;BME280;3963;42.658;23.298;2022-09-03T00:35:15;60339.25;;;16.36;100.00
7836;BME280;3963;42.658;23.298;2022-09-03T00:37:46;60329.34;;;16.36;100.00
7836;BME280;3963;42.658;23.298;2022-09-03T00:40:24;60330.41;;;16.37;100.00
7836;BME280;3963;42.658;23.298;2022-09-03T00:42:58;60361.97;;;16.42;100.00
7836;BME280;3963;42.658;23.298;2022-09-03T00:45:33;60381.00;;;16.48;100.00
7836;BME280;3963;42.658;23.298;2022-09-03T00:48:10;60316.63;;;16.46;100.00
7836;BME280;3963;42.658;23.298;2022-09-03T00:50:52;60331.41;;;16.50;100.00
7836;BME280;3963;42.658;23.298;2022-09-03T00:53:28;60356.13;;;16.39;100.00
7836;BME280;3963;42.658;23.298;2022-09-03T00:56:04;60350.34;;;16.39;100.00
7836;BME280;3963;42.658;23.298;2022-09-03T00:58:53;60326.09;;;16.33;100.00
7836;BME280;3963;42.658;23.298;2022-09-03T01:01:29;60330.59;;;16.28;100.00
7836;BME280;3963;42.658;23.298;2022-09-03T01:06:57;60333.75;;;16.28;100.00
7836;BME280;3963;42.658;23.298;2022-09-03T01:09:40;60325.91;;;16.28;100.00
7836;BME280;3963;42.658;23.298;2022-09-03T01:12:18;60357.47;;;16.33;100.00
7836;BME280;3963;42.658;23.298;2022-09-03T01:14:57;60333.94;;;16.33;100.00
7836;BME280;3963;42.658;23.298;2022-09-03T01:17:35;60317.66;;;16.16;100.00
7836;BME280;3963;42.658;23.298;2022-09-03T01:20:16;60310.25;;;16.14;100.00
7836;BME280;3963;42.658;23.298;2022-09-03T01:23:13;60316.91;;;16.25;100.00
7836;BME280;3963;42.658;23.298;2022-09-03T01:25:58;60329.34;;;16.22;100.00
7836;BME280;3963;42.658;23.298;2022-09-03T01:28:41;60313.47;;;16.17;100.00
7836;BME280;3963;42.658;23.298;2022-09-03T01:31:17;60316.56;;;16.15;100.00
7836;BME280;3963;42.658;23.298;2022-09-03T01:33:51;60298.53;;;16.08;100.00
7836;BME280;3963;42.658;23.298;2022-09-03T01:36:27;60276.56;;;15.92;100.00
7836;BME280;3963;42.658;23.298;2022-09-03T01:39:00;60263.78;;;15.85;100.00
7836;BME280;3963;42.658;23.298;2022-09-03T01:41:42;60288.00;;;15.90;100.00
7836;BME280;3963;42.658;23.298;2022-09-03T01:44:41;60287.19;;;15.97;100.00
7836;BME280;3963;42.658;23.298;2022-09-03T01:47:16;60249.53;;;15.96;100.00
7836;BME280;3963;42.658;23.298;2022-09-03T01:49:53;60298.19;;;15.97;100.00
7836;BME280;3963;42.658;23.298;2022-09-03T01:52:32;60287.91;;;16.02;100.00
7836;BME280;3963;42.658;23.298;2022-09-03T01:55:11;60301.78;;;15.96;100.00
7836;BME280;3963;42.658;23.298;2022-09-03T01:57:48;60315.94;;;15.97;100.00
7836;BME280;3963;42.658;23.298;2022-09-03T02:00:22;60290.63;;;15.90;100.00
7836;BME280;3963;42.658;23.298;2022-09-03T02:02:51;60324.84;;;16.13;100.00
7836;BME280;3963;42.658;23.298;2022-09-03T02:05:20;60317.19;;;16.18;100.00
7836;BME280;3963;42.658;23.298;2022-09-03T02:07:55;60334.59;;;16.22;100.00
7836;BME280;3963;42.658;23.298;2022-09-03T02:10:25;60334.59;;;16.22;100.00
7836;BME280;3963;42.658;23.298;2022-09-03T02:12:58;60295.38;;;16.22;100.00
7836;BME280;3963;42.658;23.298;2022-09-03T02:15:28;60292.41;;;16.12;100.00
7836;BME280;3963;42.658;23.298;2022-09-03T02:18:02;60318.25;;;16.04;100.00
7836;BME280;3963;42.658;23.298;2022-09-03T02:20:29;60282.69;;;16.02;100.00
7836;BME280;3963;42.658;23.298;2022-09-03T02:22:57;60262.03;;;16.10;100.00
7836;BME280;3963;42.658;23.298;2022-09-03T02:25:29;60287.91;;;16.02;100.00
7836;BME280;3963;42.658;23.298;2022-09-03T02:27:58;60331.31;;;16.04;100.00
7836;BME280;3963;42.658;23.298;2022-09-03T02:30:28;60284.84;;;16.04;100.00
7836;BME280;3963;42.658;23.298;2022-09-03T02:32:55;60314.66;;;16.05;100.00
7836;BME280;3963;42.658;23.298;2022-09-03T02:35:22;60277.47;;;16.02;100.00
7836;BME280;3963;42.658;23.298;2022-09-03T02:37:49;60270.78;;;16.06;100.00
7836;BME280;3963;42.658;23.298;2022-09-03T02:40:16;60332.50;;;16.08;100.00
7836;BME280;3963;42.658;23.298;2022-09-03T02:42:44;60308.00;;;16.09;100.00
7836;BME280;3963;42.658;23.298;2022-09-03T02:45:19;60290.78;;;16.10;100.00
7836;BME280;3963;42.658;23.298;2022-09-03T02:47:53;60326.84;;;16.10;100.00
7836;BME280;3963;42.658;23.298;2022-09-03T02:50:20;60314.22;;;16.08;100.00
7836;BME280;3963;42.658;23.298;2022-09-03T02:52:47;60310.97;;;16.04;100.00
7836;BME280;3963;42.658;23.298;2022-09-03T02:55:14;60276.91;;;16.02;100.00
7836;BME280;3963;42.658;23.298;2022-09-03T02:57:41;60254.78;;;15.81;100.00
7836;BME280;3963;42.658;23.298;2022-09-03T03:00:08;60276.13;;;15.79;100.00
7836;BME280;3963;42.658;23.298;2022-09-03T03:02:35;60261.34;;;15.75;100.00
7836;BME280;3963;42.658;23.298;2022-09-03T03:05:05;60277.47;;;15.73;100.00
7836;BME280;3963;42.658;23.298;2022-09-03T03:07:36;60247.94;;;15.80;100.00
7836;BME280;3963;42.658;23.298;2022-09-03T03:10:05;60256.13;;;15.75;100.00
7836;BME280;3963;42.658;23.298;2022-09-03T03:12:33;60261.72;;;15.85;100.00
7836;BME280;3963;42.658;23.298;2022-09-03T03:14:59;60276.38;;;15.72;100.00
7836;BME280;3963;42.658;23.298;2022-09-03T03:17:26;60208.75;;;15.65;100.00
7836;BME280;3963;42.658;23.298;2022-09-03T03:19:53;60234.59;;;15.72;100.00
7836;BME280;3963;42.658;23.298;2022-09-03T03:22:21;60265.56;;;15.62;100.00
7836;BME280;3963;42.658;23.298;2022-09-03T03:24:48;60251.16;;;15.54;100.00
7836;BME280;3963;42.658;23.298;2022-09-03T03:27:17;60252.81;;;15.55;100.00
7836;BME280;3963;42.658;23.298;2022-09-03T03:29:44;60241.81;;;15.69;100.00
7836;BME280;3963;42.658;23.298;2022-09-03T03:32:11;60220.91;;;15.69;100.00
7836;BME280;3963;42.658;23.298;2022-09-03T03:34:38;60273.50;;;15.65;100.00
7836;BME280;3963;42.658;23.298;2022-09-03T03:37:04;60247.56;;;15.70;100.00
7836;BME280;3963;42.658;23.298;2022-09-03T03:39:33;60246.84;;;15.64;100.00
7836;BME280;3963;42.658;23.298;2022-09-03T03:41:59;60201.38;;;15.63;100.00
7836;BME280;3963;42.658;23.298;2022-09-03T03:44:26;60263.41;;;15.60;100.00
7836;BME280;3963;42.658;23.298;2022-09-03T03:46:54;60232.00;;;15.58;100.00
7836;BME280;3963;42.658;23.298;2022-09-03T03:49:20;60254.06;;;15.61;100.00
7836;BME280;3963;42.658;23.298;2022-09-03T03:51:47;60218.69;;;15.65;100.00
7836;BME280;3963;42.658;23.298;2022-09-03T03:54:14;60257.75;;;15.62;100.00
7836;BME280;3963;42.658;23.298;2022-09-03T03:56:43;60216.34;;;15.58;100.00
7836;BME280;3963;42.658;23.298;2022-09-03T03:59:09;60234.78;;;15.63;100.00
7836;BME280;3963;42.658;23.298;2022-09-03T04:01:36;60263.78;;;15.70;100.00
7836;BME280;3963;42.658;23.298;2022-09-03T04:04:03;60257.22;;;15.76;100.00
7836;BME280;3963;42.658;23.298;2022-09-03T04:06:31;60287.19;;;15.82;100.00
7836;BME280;3963;42.658;23.298;2022-09-03T04:08:57;60284.75;;;15.87;100.00
7836;BME280;3963;42.658;23.298;2022-09-03T04:11:25;60263.22;;;15.84;100.00
7836;BME280;3963;42.658;23.298;2022-09-03T04:13:53;60283.56;;;15.98;100.00
7836;BME280;3963;42.658;23.298;2022-09-03T04:16:21;60248.75;;;15.88;100.00
7836;BME280;3963;42.658;23.298;2022-09-03T04:18:49;60263.31;;;15.87;100.00
7836;BME280;3963;42.658;23.298;2022-09-03T04:21:18;60242.88;;;15.85;100.00
7836;BME280;3963;42.658;23.298;2022-09-03T04:23:47;60271.25;;;15.89;100.00
7836;BME280;3963;42.658;23.298;2022-09-03T04:26:16;60253.78;;;15.83;100.00
7836;BME280;3963;42.658;23.298;2022-09-03T04:28:43;60242.72;;;15.80;100.00
7836;BME280;3963;42.658;23.298;2022-09-03T04:31:14;60253.97;;;15.73;100.00
7836;BME280;3963;42.658;23.298;2022-09-03T04:33:41;60237.94;;;15.78;100.00
7836;BME280;3963;42.658;23.298;2022-09-03T04:36:09;60287.00;;;15.92;100.00
7836;BME280;3963;42.658;23.298;2022-09-03T04:38:37;60310.72;;;15.97;100.00
7836;BME280;3963;42.658;23.298;2022-09-03T04:41:06;60274.69;;;15.97;100.00
7836;BME280;3963;42.658;23.298;2022-09-03T04:43:33;60286.91;;;15.89;100.00
7836;BME280;3963;42.658;23.298;2022-09-03T04:46:02;60313.03;;;15.89;100.00
7836;BME280;3963;42.658;23.298;2022-09-03T04:48:32;60293.13;;;15.88;100.00
7836;BME280;3963;42.658;23.298;2022-09-03T04:51:04;60269.53;;;15.85;100.00
7836;BME280;3963;42.658;23.298;2022-09-03T04:53:32;60276.03;;;15.91;100.00
7836;BME280;3963;42.658;23.298;2022-09-03T04:55:59;60297.47;;;16.07;100.00
7836;BME280;3963;42.658;23.298;2022-09-03T04:58:26;60292.03;;;16.01;100.00
7836;BME280;3963;42.658;23.298;2022-09-03T05:00:53;60310.41;;;16.04;100.00
7836;BME280;3963;42.658;23.298;2022-09-03T05:03:21;60297.34;;;16.04;100.00
7836;BME280;3963;42.658;23.298;2022-09-03T05:05:53;60285.22;;;16.00;100.00
7836;BME280;3963;42.658;23.298;2022-09-03T05:08:21;60294.75;;;16.04;100.00
7836;BME280;3963;42.658;23.298;2022-09-03T05:10:48;60318.16;;;16.01;100.00
7836;BME280;3963;42.658;23.298;2022-09-03T05:13:15;60296.84;;;16.03;100.00
7836;BME280;3963;42.658;23.298;2022-09-03T05:15:42;60345.56;;;16.08;100.00
7836;BME280;3963;42.658;23.298;2022-09-03T05:18:09;60341.06;;;16.13;100.00
7836;BME280;3963;42.658;23.298;2022-09-03T05:20:37;60340.63;;;16.15;100.00
7836;BME280;3963;42.658;23.298;2022-09-03T05:23:06;60285.94;;;16.05;100.00
7836;BME280;3963;42.658;23.298;2022-09-03T05:25:33;60307.28;;;16.03;100.00
7836;BME280;3963;42.658;23.298;2022-09-03T05:28:00;60318.00;;;16.11;100.00
7836;BME280;3963;42.658;23.298;2022-09-03T05:30:27;60327.56;;;16.15;100.00
7836;BME280;3963;42.658;23.298;2022-09-03T05:32:56;60287.19;;;16.12;100.00
7836;BME280;3963;42.658;23.298;2022-09-03T05:35:22;60308.00;;;16.09;100.00
7836;BME280;3963;42.658;23.298;2022-09-03T05:37:53;60314.13;;;16.20;100.00
7836;BME280;3963;42.658;23.298;2022-09-03T05:40:21;60298.53;;;16.22;100.00
7836;BME280;3963;42.658;23.298;2022-09-03T05:42:54;60335.81;;;16.13;100.00
7836;BME280;3963;42.658;23.298;2022-09-03T05:45:21;60321.78;;;16.29;100.00
7836;BME280;3963;42.658;23.298;2022-09-03T05:47:49;60340.16;;;16.17;100.00
7836;BME280;3963;42.658;23.298;2022-09-03T05:50:16;60316.63;;;16.17;100.00
7836;BME280;3963;42.658;23.298;2022-09-03T05:52:43;60314.41;;;16.27;100.00
7836;BME280;3963;42.658;23.298;2022-09-03T05:55:09;60321.22;;;16.29;100.00
7836;BME280;3963;42.658;23.298;2022-09-03T05:57:38;60327.00;;;16.29;100.00
7836;BME280;3963;42.658;23.298;2022-09-03T06:00:06;60355.28;;;16.31;100.00
7836;BME280;3963;42.658;23.298;2022-09-03T06:02:33;60330.31;;;16.49;100.00
7836;BME280;3963;42.658;23.298;2022-09-03T06:05:00;60385.06;;;16.59;100.00
7836;BME280;3963;42.658;23.298;2022-09-03T06:07:28;60382.53;;;16.62;100.00
7836;BME280;3963;42.658;23.298;2022-09-03T06:09:55;60364.88;;;16.65;100.00
7836;BME280;3963;42.658;23.298;2022-09-03T06:12:22;60347.81;;;16.41;100.00
7836;BME280;3963;42.658;23.298;2022-09-03T06:14:50;60325.19;;;16.52;100.00
7836;BME280;3963;42.658;23.298;2022-09-03T06:17:17;60345.19;;;16.71;100.00
7836;BME280;3963;42.658;23.298;2022-09-03T06:19:43;60404.53;;;16.77;100.00
7836;BME280;3963;42.658;23.298;2022-09-03T06:22:10;60397.41;;;16.68;100.00
7836;BME280;3963;42.658;23.298;2022-09-03T06:24:37;60403.38;;;16.74;100.00
7836;BME280;3963;42.658;23.298;2022-09-03T06:27:04;60412.31;;;16.89;100.00
7836;BME280;3963;42.658;23.298;2022-09-03T06:29:32;60409.31;;;16.79;100.00
7836;BME280;3963;42.658;23.298;2022-09-03T06:32:01;60403.09;;;16.81;100.00
7836;BME280;3963;42.658;23.298;2022-09-03T06:34:29;60427.28;;;16.84;100.00
7836;BME280;3963;42.658;23.298;2022-09-03T06:36:56;60426.09;;;16.95;100.00
7836;BME280;3963;42.658;23.298;2022-09-03T06:39:23;60383.97;;;16.87;100.00
7836;BME280;3963;42.658;23.298;2022-09-03T06:41:51;60442.25;;;17.07;100.00
7836;BME280;3963;42.658;23.298;2022-09-03T06:44:18;60487.47;;;17.28;100.00
7836;BME280;3963;42.658;23.298;2022-09-03T06:46:44;60475.00;;;17.31;100.00
7836;BME280;3963;42.658;23.298;2022-09-03T06:49:14;60492.06;;;17.39;100.00
7836;BME280;3963;42.658;23.298;2022-09-03T06:51:40;60500.00;;;17.42;100.00
7836;BME280;3963;42.658;23.298;2022-09-03T06:54:10;60510.50;;;17.56;100.00
7836;BME280;3963;42.658;23.298;2022-09-03T06:56:38;60545.53;;;17.69;100.00
7836;BME280;3963;42.658;23.298;2022-09-03T06:59:06;60559.28;;;17.87;100.00
7836;BME280;3963;42.658;23.298;2022-09-03T07:01:34;60583.84;;;17.86;100.00
7836;BME280;3963;42.658;23.298;2022-09-03T07:04:03;60568.50;;;17.81;100.00
7836;BME280;3963;42.658;23.298;2022-09-03T07:06:33;60578.34;;;17.78;100.00
7836;BME280;3963;42.658;23.298;2022-09-03T07:09:03;60529.09;;;17.64;100.00
7836;BME280;3963;42.658;23.298;2022-09-03T07:11:30;60565.78;;;17.93;100.00
7836;BME280;3963;42.658;23.298;2022-09-03T07:13:58;60561.25;;;18.13;100.00
7836;BME280;3963;42.658;23.298;2022-09-03T07:16:27;60639.88;;;18.28;100.00
7836;BME280;3963;42.658;23.298;2022-09-03T07:18:55;60571.34;;;18.33;100.00
7836;BME280;3963;42.658;23.298;2022-09-03T07:21:23;60630.31;;;18.53;100.00
7836;BME280;3963;42.658;23.298;2022-09-03T07:23:53;60676.81;;;18.62;100.00
7836;BME280;3963;42.658;23.298;2022-09-03T07:26:22;60704.50;;;18.88;100.00
7836;BME280;3963;42.658;23.298;2022-09-03T07:28:49;60683.22;;;18.95;100.00
7836;BME280;3963;42.658;23.298;2022-09-03T07:31:21;60731.91;;;19.06;100.00
7836;BME280;3963;42.658;23.298;2022-09-03T07:33:52;60724.84;;;19.29;100.00
7836;BME280;3963;42.658;23.298;2022-09-03T07:36:21;60760.06;;;19.30;100.00
7836;BME280;3963;42.658;23.298;2022-09-03T07:38:48;60789.34;;;19.40;100.00
7836;BME280;3963;42.658;23.298;2022-09-03T07:41:17;60780.91;;;19.69;100.00
7836;BME280;3963;42.658;23.298;2022-09-03T07:43:45;60820.25;;;19.66;100.00
7836;BME280;3963;42.658;23.298;2022-09-03T07:46:13;60786.97;;;19.62;100.00
7836;BME280;3963;42.658;23.298;2022-09-03T07:48:41;60792.69;;;19.75;100.00
7836;BME280;3963;42.658;23.298;2022-09-03T07:51:08;60799.03;;;19.76;100.00
7836;BME280;3963;42.658;23.298;2022-09-03T07:53:35;60824.03;;;19.84;100.00
7836;BME280;3963;42.658;23.298;2022-09-03T07:56:04;60847.06;;;19.81;100.00
7836;BME280;3963;42.658;23.298;2022-09-03T07:58:34;60844.72;;;19.74;100.00
7836;BME280;3963;42.658;23.298;2022-09-03T08:01:04;60801.56;;;19.73;100.00
7836;BME280;3963;42.658;23.298;2022-09-03T08:03:32;60774.31;;;19.60;100.00
7836;BME280;3963;42.658;23.298;2022-09-03T08:06:01;60792.16;;;19.60;100.00
7836;BME280;3963;42.658;23.298;2022-09-03T08:08:29;60811.47;;;19.70;100.00
7836;BME280;3963;42.658;23.298;2022-09-03T08:11:03;60866.56;;;19.97;100.00
7836;BME280;3963;42.658;23.298;2022-09-03T08:13:32;60879.44;;;20.19;100.00
7836;BME280;3963;42.658;23.298;2022-09-03T08:15:59;60918.72;;;20.43;100.00
7836;BME280;3963;42.658;23.298;2022-09-03T08:18:26;61065.28;;;21.49;100.00
7836;BME280;3963;42.658;23.298;2022-09-03T08:21:03;61163.38;;;22.23;100.00
7836;BME280;3963;42.658;23.298;2022-09-03T08:23:32;61147.81;;;22.01;100.00
7836;BME280;3963;42.658;23.298;2022-09-03T08:25:59;61187.41;;;22.16;100.00
7836;BME280;3963;42.658;23.298;2022-09-03T08:28:27;61154.94;;;22.08;100.00
7836;BME280;3963;42.658;23.298;2022-09-03T08:31:03;61178.13;;;22.08;100.00
7836;BME280;3963;42.658;23.298;2022-09-03T08:33:30;61077.44;;;21.51;100.00
7836;BME280;3963;42.658;23.298;2022-09-03T08:36:04;61141.38;;;21.98;100.00
7836;BME280;3963;42.658;23.298;2022-09-03T08:38:32;61167.84;;;22.30;100.00
7836;BME280;3963;42.658;23.298;2022-09-03T08:41:04;61157.22;;;22.13;100.00
7836;BME280;3963;42.658;23.298;2022-09-03T08:43:45;61037.47;;;21.38;100.00
7836;BME280;3963;42.658;23.298;2022-09-03T08:46:19;61025.13;;;21.17;100.00
7836;BME280;3963;42.658;23.298;2022-09-03T08:48:51;61027.47;;;21.39;100.00
7836;BME280;3963;42.658;23.298;2022-09-03T08:51:22;61086.63;;;21.57;100.00
7836;BME280;3963;42.658;23.298;2022-09-03T08:53:53;61199.34;;;22.25;100.00
7836;BME280;3963;42.658;23.298;2022-09-03T08:56:24;61105.53;;;21.70;100.00
7836;BME280;3963;42.658;23.298;2022-09-03T08:58:52;61096.34;;;21.64;100.00
7836;BME280;3963;42.658;23.298;2022-09-03T09:01:33;61036.00;;;21.27;100.00
7836;BME280;3963;42.658;23.298;2022-09-03T09:04:09;61028.19;;;21.01;100.00
7836;BME280;3963;42.658;23.298;2022-09-03T09:06:46;60946.81;;;20.79;100.00
7836;BME280;3963;42.658;23.298;2022-09-03T09:09:23;60957.56;;;20.55;100.00
7836;BME280;3963;42.658;23.298;2022-09-03T09:12:03;60890.13;;;20.24;100.00
7836;BME280;3963;42.658;23.298;2022-09-03T09:14:38;60867.75;;;20.01;100.00
7836;BME280;3963;42.658;23.298;2022-09-03T09:17:23;60852.50;;;20.01;100.00
7836;BME280;3963;42.658;23.298;2022-09-03T09:20:04;60887.06;;;20.11;100.00
7836;BME280;3963;42.658;23.298;2022-09-03T09:22:36;60879.63;;;20.24;100.00
7836;BME280;3963;42.658;23.298;2022-09-03T09:25:08;60884.78;;;20.21;100.00
7836;BME280;3963;42.658;23.298;2022-09-03T09:27:43;60925.78;;;20.20;100.00
7836;BME280;3963;42.658;23.298;2022-09-03T09:30:15;60913.09;;;20.48;100.00
7836;BME280;3963;42.658;23.298;2022-09-03T09:32:44;60956.84;;;20.64;100.00
7836;BME280;3963;42.658;23.298;2022-09-03T09:35:13;60897.03;;;20.55;100.00
7836;BME280;3963;42.658;23.298;2022-09-03T09:37:47;60915.00;;;20.27;100.00
7836;BME280;3963;42.658;23.298;2022-09-03T09:40:26;60873.28;;;20.08;100.00
7836;BME280;3963;42.658;23.298;2022-09-03T09:43:05;60865.84;;;20.06;100.00
7836;BME280;3963;42.658;23.298;2022-09-03T09:45:32;60891.13;;;20.22;100.00
7836;BME280;3963;42.658;23.298;2022-09-03T09:48:02;60934.31;;;20.53;100.00
7836;BME280;3963;42.658;23.298;2022-09-03T09:50:34;60914.50;;;20.73;100.00
7836;BME280;3963;42.658;23.298;2022-09-03T09:53:02;61021.88;;;21.14;100.00
7836;BME280;3963;42.658;23.298;2022-09-03T09:55:48;61109.38;;;21.88;100.00
7836;BME280;3963;42.658;23.298;2022-09-03T09:58:18;61264.34;;;22.70;100.00
7836;BME280;3963;42.658;23.298;2022-09-03T10:00:55;61316.81;;;23.19;100.00
7836;BME280;3963;42.658;23.298;2022-09-03T10:03:24;61323.47;;;23.12;100.00
7836;BME280;3963;42.658;23.298;2022-09-03T10:06:01;61364.03;;;23.52;100.00
7836;BME280;3963;42.658;23.298;2022-09-03T10:08:51;61498.00;;;24.42;100.00
7836;BME280;3963;42.658;23.298;2022-09-03T10:11:20;61669.00;;;25.38;95.01
7836;BME280;3963;42.658;23.298;2022-09-03T10:13:51;61700.97;;;25.55;91.95
7836;BME280;3963;42.658;23.298;2022-09-03T10:16:21;61752.19;;;25.93;91.39
7836;BME280;3963;42.658;23.298;2022-09-03T10:18:59;61757.88;;;26.17;90.22
7836;BME280;3963;42.658;23.298;2022-09-03T10:21:29;61863.63;;;26.90;88.46
7836;BME280;3963;42.658;23.298;2022-09-03T10:24:02;62009.16;;;27.55;84.69
7836;BME280;3963;42.658;23.298;2022-09-03T10:26:35;62083.19;;;27.84;73.22
7836;BME280;3963;42.658;23.298;2022-09-03T10:29:03;62142.97;;;28.29;67.60
7836;BME280;3963;42.658;23.298;2022-09-03T10:31:40;62184.34;;;28.37;65.85
7836;BME280;3963;42.658;23.298;2022-09-03T10:34:15;62198.59;;;28.63;63.18
7836;BME280;3963;42.658;23.298;2022-09-03T10:36:51;62187.84;;;28.60;63.07
7836;BME280;3963;42.658;23.298;2022-09-03T10:39:22;62127.44;;;28.27;65.13
7836;BME280;3963;42.658;23.298;2022-09-03T10:42:03;62085.22;;;27.81;64.91
7836;BME280;3963;42.658;23.298;2022-09-03T10:44:49;62030.66;;;27.60;64.85
7836;BME280;3963;42.658;23.298;2022-09-03T11:11:09;61779.59;;;26.01;68.85
7836;BME280;3963;42.658;23.298;2022-09-03T11:13:41;61746.88;;;25.93;69.72
7836;BME280;3963;42.658;23.298;2022-09-03T11:16:14;61725.94;;;25.71;70.05
7836;BME280;3963;42.658;23.298;2022-09-03T11:18:46;61774.84;;;26.16;68.19
7836;BME280;3963;42.658;23.298;2022-09-03T11:21:17;61759.16;;;26.23;68.72
7836;BME280;3963;42.658;23.298;2022-09-03T11:23:47;61792.59;;;25.93;69.20
7836;BME280;3963;42.658;23.298;2022-09-03T11:26:18;61749.81;;;26.00;69.20
7836;BME280;3963;42.658;23.298;2022-09-03T11:28:53;61780.59;;;26.14;68.06
7836;BME280;3963;42.658;23.298;2022-09-03T11:31:30;61819.34;;;26.57;66.21
7836;BME280;3963;42.658;23.298;2022-09-03T11:34:00;61716.59;;;25.77;68.09
7836;BME280;3963;42.658;23.298;2022-09-03T11:36:32;61727.88;;;25.65;69.38
7836;BME280;3963;42.658;23.298;2022-09-03T11:38:59;61633.03;;;25.27;70.95
7836;BME280;3963;42.658;23.298;2022-09-03T11:41:31;61688.50;;;25.63;70.76
7836;BME280;3963;42.658;23.298;2022-09-03T11:44:16;61685.19;;;25.46;70.92
7836;BME280;3963;42.658;23.298;2022-09-03T11:46:52;61704.78;;;25.73;68.49
7836;BME280;3963;42.658;23.298;2022-09-03T11:49:27;61843.66;;;26.37;66.49
7836;BME280;3963;42.658;23.298;2022-09-03T11:51:57;61808.66;;;26.25;66.13
7836;BME280;3963;42.658;23.298;2022-09-03T11:54:25;61746.19;;;26.16;66.49
7836;BME280;3963;42.658;23.298;2022-09-03T11:57:05;61671.38;;;25.16;68.39
7836;BME280;3963;42.658;23.298;2022-09-03T11:59:35;61532.88;;;24.84;72.28
7836;BME280;3963;42.658;23.298;2022-09-03T12:02:06;61538.44;;;24.47;73.80
7836;BME280;3963;42.658;23.298;2022-09-03T12:04:43;61614.88;;;25.08;72.60
7836;BME280;3963;42.658;23.298;2022-09-03T12:07:28;61612.84;;;25.11;71.07
7836;BME280;3963;42.658;23.298;2022-09-03T12:10:09;61617.53;;;25.08;69.06
7836;BME280;3963;42.658;23.298;2022-09-03T12:12:51;61533.06;;;24.45;70.62
7836;BME280;3963;42.658;23.298;2022-09-03T12:15:33;61529.59;;;24.51;72.52
7836;BME280;3963;42.658;23.298;2022-09-03T12:18:06;61605.09;;;25.01;70.78
7836;BME280;3963;42.658;23.298;2022-09-03T12:20:58;61557.00;;;24.91;68.54
7836;BME280;3963;42.658;23.298;2022-09-03T12:23:27;61590.09;;;24.97;69.49
7836;BME280;3963;42.658;23.298;2022-09-03T12:25:55;61527.75;;;24.59;70.08
7836;BME280;3963;42.658;23.298;2022-09-03T12:28:25;61508.50;;;24.54;71.34
7836;BME280;3963;42.658;23.298;2022-09-03T12:31:04;61486.66;;;24.36;72.37
7836;BME280;3963;42.658;23.298;2022-09-03T12:33:32;61498.56;;;24.28;73.21
7836;BME280;3963;42.658;23.298;2022-09-03T12:36:00;61389.38;;;23.81;75.98
7836;BME280;3963;42.658;23.298;2022-09-03T12:38:28;61374.59;;;23.67;78.01
7836;BME280;3963;42.658;23.298;2022-09-03T12:40:56;61442.84;;;23.96;77.32
7836;BME280;3963;42.658;23.298;2022-09-03T12:43:28;61421.41;;;23.88;76.28
7836;BME280;3963;42.658;23.298;2022-09-03T12:45:55;61420.03;;;23.80;75.24
7836;BME280;3963;42.658;23.298;2022-09-03T12:48:22;61395.13;;;23.79;76.11
7836;BME280;3963;42.658;23.298;2022-09-03T12:51:00;61363.38;;;23.64;76.07
7836;BME280;3963;42.658;23.298;2022-09-03T12:53:29;61394.66;;;23.81;75.61
7836;BME280;3963;42.658;23.298;2022-09-03T12:55:58;61383.34;;;23.75;75.40
7836;BME280;3963;42.658;23.298;2022-09-03T12:58:32;61387.56;;;23.74;75.60
7836;BME280;3963;42.658;23.298;2022-09-03T13:01:06;61430.44;;;23.75;75.28
7836;BME280;3963;42.658;23.298;2022-09-03T13:03:43;61369.22;;;23.64;76.06
7836;BME280;3963;42.658;23.298;2022-09-03T13:06:13;61392.13;;;23.68;77.49
7836;BME280;3963;42.658;23.298;2022-09-03T13:08:45;61376.25;;;23.83;77.51
7836;BME280;3963;42.658;23.298;2022-09-03T13:11:16;61368.31;;;23.68;76.69
7836;BME280;3963;42.658;23.298;2022-09-03T13:13:52;61343.97;;;23.53;76.49
7836;BME280;3963;42.658;23.298;2022-09-03T13:16:47;61368.94;;;23.57;77.40
7836;BME280;3963;42.658;23.298;2022-09-03T13:19:20;61316.78;;;23.33;76.75
7836;BME280;3963;42.658;23.298;2022-09-03T13:21:54;61306.22;;;23.19;78.17
7836;BME280;3963;42.658;23.298;2022-09-03T13:24:59;61332.47;;;23.28;77.63
7836;BME280;3963;42.658;23.298;2022-09-03T13:27:32;61298.81;;;23.34;75.82
7836;BME280;3963;42.658;23.298;2022-09-03T13:30:07;61293.00;;;23.33;75.33
7836;BME280;3963;42.658;23.298;2022-09-03T13:32:42;61364.03;;;23.52;74.52
7836;BME280;3963;42.658;23.298;2022-09-03T13:35:15;61365.88;;;23.59;74.87
7836;BME280;3963;42.658;23.298;2022-09-03T13:37:47;61406.63;;;23.89;75.11
7836;BME280;3963;42.658;23.298;2022-09-03T13:40:21;61461.28;;;24.22;72.43
7836;BME280;3963;42.658;23.298;2022-09-03T13:42:52;61416.91;;;24.11;72.20
7836;BME280;3963;42.658;23.298;2022-09-03T13:45:28;61454.53;;;24.26;71.68
7836;BME280;3963;42.658;23.298;2022-09-03T13:48:02;61480.28;;;24.35;70.30
7836;BME280;3963;42.658;23.298;2022-09-03T13:50:52;61473.03;;;24.41;70.29
7836;BME280;3963;42.658;23.298;2022-09-03T13:53:31;61511.31;;;24.44;69.13